sensor_id;sensor_type;location;lat;lon;timestamp;noise_LAeq;noise_LA_min;noise_LA_max;noise_LA01;noise_LA95
64545;Laerm;50936;51.660;5.616;2023-05-19T00:01:19;46.03;38.95;57.09;;
64545;Laerm;50936;51.660;5.616;2023-05-19T00:03:55;55.73;40.43;69.76;;
64545;Laerm;50936;51.660;5.616;2023-05-19T00:06:31;51.90;39.46;69.68;;
64545;Laerm;50936;51.660;5.616;2023-05-19T00:09:04;44.37;38.81;57.39;;
64545;Laerm;50936;51.660;5.616;2023-05-19T00:11:32;44.07;38.67;59.22;;
64545;Laerm;50936;51.660;5.616;2023-05-19T00:14:05;43.70;38.81;60.92;;
64545;Laerm;50936;51.660;5.616;2023-05-19T00:16:33;59.70;40.03;73.68;;
64545;Laerm;50936;51.660;5.616;2023-05-19T00:19:02;45.18;39.21;61.76;;
64545;Laerm;50936;51.660;5.616;2023-05-19T00:21:31;50.87;37.32;67.17;;
64545;Laerm;50936;51.660;5.616;2023-05-19T00:23:59;43.83;38.52;57.53;;
64545;Laerm;50936;51.660;5.616;2023-05-19T00:26:26;47.63;38.81;67.06;;
64545;Laerm;50936;51.660;5.616;2023-05-19T00:28:59;55.83;38.95;68.79;;
64545;Laerm;50936;51.660;5.616;2023-05-19T00:31:26;50.73;39.46;66.48;;
64545;Laerm;50936;51.660;5.616;2023-05-19T00:33:54;52.46;39.21;69.65;;
64545;Laerm;50936;51.660;5.616;2023-05-19T00:36:21;45.69;38.37;61.76;;
64545;Laerm;50936;51.660;5.616;2023-05-19T00:38:48;44.33;38.21;55.92;;
64545;Laerm;50936;51.660;5.616;2023-05-19T00:41:17;43.70;36.20;61.32;;
64545;Laerm;50936;51.660;5.616;2023-05-19T00:43:44;44.61;37.88;62.57;;
64545;Laerm;50936;51.660;5.616;2023-05-19T00:46:13;55.44;36.69;68.60;;
64545;Laerm;50936;51.660;5.616;2023-05-19T00:48:40;53.20;39.08;67.14;;
64545;Laerm;50936;51.660;5.616;2023-05-19T00:51:11;45.33;38.95;67.86;;
64545;Laerm;50936;51.660;5.616;2023-05-19T00:53:40;43.98;38.81;60.24;;
64545;Laerm;50936;51.660;5.616;2023-05-19T00:56:07;45.78;38.81;66.61;;
64545;Laerm;50936;51.660;5.616;2023-05-19T00:58:35;50.67;38.81;69.81;;
64545;Laerm;50936;51.660;5.616;2023-05-19T01:01:02;43.87;38.52;64.10;;
64545;Laerm;50936;51.660;5.616;2023-05-19T01:03:34;44.57;38.05;65.10;;
64545;Laerm;50936;51.660;5.616;2023-05-19T01:06:03;42.77;38.67;58.83;;
64545;Laerm;50936;51.660;5.616;2023-05-19T01:08:32;45.31;39.21;67.96;;
64545;Laerm;50936;51.660;5.616;2023-05-19T01:11:00;43.08;38.05;61.63;;
64545;Laerm;50936;51.660;5.616;2023-05-19T01:13:28;43.10;38.37;56.15;;
64545;Laerm;50936;51.660;5.616;2023-05-19T01:16:30;44.11;38.37;63.18;;
64545;Laerm;50936;51.660;5.616;2023-05-19T01:19:30;49.15;38.67;64.72;;
64545;Laerm;50936;51.660;5.616;2023-05-19T01:31:20;43.90;38.02;61.89;;
64545;Laerm;50936;51.660;5.616;2023-05-19T01:33:53;49.54;38.52;65.93;;
64545;Laerm;50936;51.660;5.616;2023-05-19T01:36:22;47.56;38.37;64.50;;
64545;Laerm;50936;51.660;5.616;2023-05-19T01:38:51;45.74;37.53;67.70;;
64545;Laerm;50936;51.660;5.616;2023-05-19T01:41:21;44.67;38.02;62.20;;
64545;Laerm;50936;51.660;5.616;2023-05-19T01:43:50;47.03;37.88;67.15;;
64545;Laerm;50936;51.660;5.616;2023-05-19T01:46:17;43.60;38.95;65.52;;
64545;Laerm;50936;51.660;5.616;2023-05-19T01:48:46;45.67;38.67;66.13;;
64545;Laerm;50936;51.660;5.616;2023-05-19T01:51:13;51.22;38.37;67.80;;
64545;Laerm;50936;51.660;5.616;2023-05-19T01:53:41;47.63;39.58;59.67;;
64545;Laerm;50936;51.660;5.616;2023-05-19T01:56:08;54.29;40.18;66.61;;
64545;Laerm;50936;51.660;5.616;2023-05-19T01:58:59;50.51;38.67;67.97;;
64545;Laerm;50936;51.660;5.616;2023-05-19T02:01:50;49.88;38.67;66.97;;
64545;Laerm;50936;51.660;5.616;2023-05-19T02:04:45;48.30;38.81;65.68;;
64545;Laerm;50936;51.660;5.616;2023-05-19T02:07:33;46.39;38.67;64.38;;
64545;Laerm;50936;51.660;5.616;2023-05-19T02:10:18;43.13;39.46;60.85;;
64545;Laerm;50936;51.660;5.616;2023-05-19T02:12:52;42.85;38.81;54.77;;
64545;Laerm;50936;51.660;5.616;2023-05-19T02:15:33;43.20;39.08;63.09;;
64545;Laerm;50936;51.660;5.616;2023-05-19T02:18:05;42.40;38.95;50.10;;
64545;Laerm;50936;51.660;5.616;2023-05-19T02:20:35;52.46;39.08;71.42;;
64545;Laerm;50936;51.660;5.616;2023-05-19T02:23:01;42.46;38.95;53.18;;
64545;Laerm;50936;51.660;5.616;2023-05-19T02:25:28;50.92;39.92;67.35;;
64545;Laerm;50936;51.660;5.616;2023-05-19T02:27:57;46.41;39.08;67.49;;
64545;Laerm;50936;51.660;5.616;2023-05-19T02:30:28;42.48;39.34;55.64;;
64545;Laerm;50936;51.660;5.616;2023-05-19T02:32:59;43.17;39.81;54.64;;
64545;Laerm;50936;51.660;5.616;2023-05-19T02:35:26;54.37;39.78;71.00;;
64545;Laerm;50936;51.660;5.616;2023-05-19T02:37:53;50.39;39.58;66.07;;
64545;Laerm;50936;51.660;5.616;2023-05-19T02:40:21;43.61;39.81;58.09;;
64545;Laerm;50936;51.660;5.616;2023-05-19T02:42:48;49.35;40.43;63.65;;
64545;Laerm;50936;51.660;5.616;2023-05-19T02:45:15;52.67;40.89;71.70;;
64545;Laerm;50936;51.660;5.616;2023-05-19T02:47:42;45.91;39.92;63.36;;
64545;Laerm;50936;51.660;5.616;2023-05-19T02:50:09;44.71;40.03;59.00;;
64545;Laerm;50936;51.660;5.616;2023-05-19T02:52:36;44.91;40.98;69.39;;
64545;Laerm;50936;51.660;5.616;2023-05-19T02:55:03;42.85;40.33;58.21;;
64545;Laerm;50936;51.660;5.616;2023-05-19T02:57:33;49.78;40.43;64.50;;
64545;Laerm;50936;51.660;5.616;2023-05-19T03:00:00;57.59;41.38;75.86;;
64545;Laerm;50936;51.660;5.616;2023-05-19T03:02:28;46.40;39.70;66.58;;
64545;Laerm;50936;51.660;5.616;2023-05-19T03:04:55;47.00;40.33;62.63;;
64545;Laerm;50936;51.660;5.616;2023-05-19T03:07:22;52.33;40.80;69.82;;
64545;Laerm;50936;51.660;5.616;2023-05-19T03:09:51;46.06;40.71;56.09;;
64545;Laerm;50936;51.660;5.616;2023-05-19T03:12:18;46.54;40.53;58.15;;
64545;Laerm;50936;51.660;5.616;2023-05-19T03:14:45;51.05;40.03;65.97;;
64545;Laerm;50936;51.660;5.616;2023-05-19T03:17:13;47.20;40.03;67.45;;
64545;Laerm;50936;51.660;5.616;2023-05-19T03:19:40;51.36;40.71;70.64;;
64545;Laerm;50936;51.660;5.616;2023-05-19T03:22:07;50.50;40.43;68.14;;
64545;Laerm;50936;51.660;5.616;2023-05-19T03:24:34;54.90;40.89;70.95;;
64545;Laerm;50936;51.660;5.616;2023-05-19T03:27:03;51.35;40.62;66.39;;
64545;Laerm;50936;51.660;5.616;2023-05-19T03:29:31;53.75;41.38;75.90;;
64545;Laerm;50936;51.660;5.616;2023-05-19T03:31:58;47.22;42.16;67.20;;
64545;Laerm;50936;51.660;5.616;2023-05-19T03:34:26;55.52;41.06;70.89;;
64545;Laerm;50936;51.660;5.616;2023-05-19T03:36:53;56.61;41.33;75.28;;
64545;Laerm;50936;51.660;5.616;2023-05-19T03:39:21;51.34;41.82;72.61;;
64545;Laerm;50936;51.660;5.616;2023-05-19T03:41:48;47.59;41.53;57.97;;
64545;Laerm;50936;51.660;5.616;2023-05-19T03:44:15;55.25;40.71;70.36;;
64545;Laerm;50936;51.660;5.616;2023-05-19T03:46:43;53.11;41.89;72.12;;
64545;Laerm;50936;51.660;5.616;2023-05-19T03:49:33;50.95;41.14;72.55;;
64545;Laerm;50936;51.660;5.616;2023-05-19T03:52:23;54.09;41.61;67.03;;
64545;Laerm;50936;51.660;5.616;2023-05-19T03:54:58;50.50;41.30;64.94;;
64545;Laerm;50936;51.660;5.616;2023-05-19T03:57:25;51.84;42.22;67.69;;
64545;Laerm;50936;51.660;5.616;2023-05-19T03:59:52;55.73;41.82;71.89;;
64545;Laerm;50936;51.660;5.616;2023-05-19T04:02:20;46.03;40.98;53.92;;
64545;Laerm;50936;51.660;5.616;2023-05-19T04:04:47;55.17;42.59;74.22;;
64545;Laerm;50936;51.660;5.616;2023-05-19T04:07:14;52.00;43.24;67.29;;
64545;Laerm;50936;51.660;5.616;2023-05-19T04:09:41;54.26;41.96;66.38;;
64545;Laerm;50936;51.660;5.616;2023-05-19T04:12:08;51.47;41.89;66.80;;
64545;Laerm;50936;51.660;5.616;2023-05-19T04:14:35;54.71;42.16;70.57;;
64545;Laerm;50936;51.660;5.616;2023-05-19T04:17:02;54.48;41.22;70.67;;
64545;Laerm;50936;51.660;5.616;2023-05-19T04:19:29;60.01;42.03;76.12;;
64545;Laerm;50936;51.660;5.616;2023-05-19T04:21:57;53.94;40.13;70.79;;
64545;Laerm;50936;51.660;5.616;2023-05-19T04:24:24;54.37;42.35;71.97;;
64545;Laerm;50936;51.660;5.616;2023-05-19T04:26:51;52.30;42.41;65.94;;
64545;Laerm;50936;51.660;5.616;2023-05-19T04:29:19;55.99;42.47;72.49;;
64545;Laerm;50936;51.660;5.616;2023-05-19T04:31:46;60.42;42.22;77.18;;
64545;Laerm;50936;51.660;5.616;2023-05-19T04:34:13;55.16;42.41;71.06;;
64545;Laerm;50936;51.660;5.616;2023-05-19T04:36:40;55.55;42.88;70.68;;
64545;Laerm;50936;51.660;5.616;2023-05-19T04:39:07;54.03;43.04;67.37;;
64545;Laerm;50936;51.660;5.616;2023-05-19T04:41:40;58.66;42.82;74.70;;
64545;Laerm;50936;51.660;5.616;2023-05-19T04:44:10;57.42;43.63;70.14;;
64545;Laerm;50936;51.660;5.616;2023-05-19T04:46:40;55.60;43.63;69.24;;
64545;Laerm;50936;51.660;5.616;2023-05-19T04:49:08;60.59;44.31;75.17;;
64545;Laerm;50936;51.660;5.616;2023-05-19T04:51:41;56.21;44.31;72.24;;
64545;Laerm;50936;51.660;5.616;2023-05-19T04:54:08;60.09;43.29;76.12;;
64545;Laerm;50936;51.660;5.616;2023-05-19T04:56:36;58.90;44.35;71.55;;
64545;Laerm;50936;51.660;5.616;2023-05-19T04:59:03;55.31;43.04;67.39;;
64545;Laerm;50936;51.660;5.616;2023-05-19T05:01:30;60.74;43.54;76.78;;
64545;Laerm;50936;51.660;5.616;2023-05-19T05:04:00;56.54;43.19;68.75;;
64545;Laerm;50936;51.660;5.616;2023-05-19T05:06:29;56.78;42.47;76.82;;
64545;Laerm;50936;51.660;5.616;2023-05-19T05:08:58;56.66;43.77;67.94;;
64545;Laerm;50936;51.660;5.616;2023-05-19T05:11:30;56.57;43.39;68.02;;
64545;Laerm;50936;51.660;5.616;2023-05-19T05:13:59;62.44;43.29;91.12;;
64545;Laerm;50936;51.660;5.616;2023-05-19T05:16:28;52.53;42.98;67.60;;
64545;Laerm;50936;51.660;5.616;2023-05-19T05:18:57;57.74;43.04;70.61;;
64545;Laerm;50936;51.660;5.616;2023-05-19T05:21:24;55.48;43.19;70.40;;
64545;Laerm;50936;51.660;5.616;2023-05-19T05:23:52;56.89;42.98;69.58;;
64545;Laerm;50936;51.660;5.616;2023-05-19T05:26:29;60.28;45.60;80.59;;
64545;Laerm;50936;51.660;5.616;2023-05-19T05:29:00;60.05;46.89;73.82;;
64545;Laerm;50936;51.660;5.616;2023-05-19T05:31:28;59.13;44.51;72.63;;
64545;Laerm;50936;51.660;5.616;2023-05-19T05:33:55;62.66;44.76;79.15;;
64545;Laerm;50936;51.660;5.616;2023-05-19T05:36:26;56.55;44.01;68.85;;
64545;Laerm;50936;51.660;5.616;2023-05-19T05:38:53;58.63;44.15;72.91;;
64545;Laerm;50936;51.660;5.616;2023-05-19T05:41:21;59.40;44.27;69.34;;
64545;Laerm;50936;51.660;5.616;2023-05-19T05:43:50;62.02;45.04;84.65;;
64545;Laerm;50936;51.660;5.616;2023-05-19T05:46:17;60.24;46.02;72.78;;
64545;Laerm;50936;51.660;5.616;2023-05-19T05:48:45;59.99;44.97;73.05;;
64545;Laerm;50936;51.660;5.616;2023-05-19T05:51:13;60.50;48.57;78.26;;
64545;Laerm;50936;51.660;5.616;2023-05-19T05:53:43;58.54;45.33;68.96;;
64545;Laerm;50936;51.660;5.616;2023-05-19T05:56:15;58.47;44.51;71.80;;
64545;Laerm;50936;51.660;5.616;2023-05-19T05:58:47;59.11;49.39;75.69;;
64545;Laerm;50936;51.660;5.616;2023-05-19T06:01:15;59.80;44.47;68.56;;
64545;Laerm;50936;51.660;5.616;2023-05-19T06:03:43;57.86;45.97;79.39;;
64545;Laerm;50936;51.660;5.616;2023-05-19T06:06:14;60.24;45.57;73.01;;
64545;Laerm;50936;51.660;5.616;2023-05-19T06:08:41;59.69;46.50;70.75;;
64545;Laerm;50936;51.660;5.616;2023-05-19T06:11:09;61.96;47.96;79.66;;
64545;Laerm;50936;51.660;5.616;2023-05-19T06:13:39;57.00;44.83;68.42;;
64545;Laerm;50936;51.660;5.616;2023-05-19T06:16:14;58.04;46.10;73.84;;
64545;Laerm;50936;51.660;5.616;2023-05-19T06:18:44;59.31;45.30;71.97;;
64545;Laerm;50936;51.660;5.616;2023-05-19T06:21:12;62.91;50.11;80.11;;
64545;Laerm;50936;51.660;5.616;2023-05-19T06:23:40;59.65;46.40;70.76;;
64545;Laerm;50936;51.660;5.616;2023-05-19T06:26:09;63.62;47.79;77.82;;
64545;Laerm;50936;51.660;5.616;2023-05-19T06:28:36;59.70;45.80;69.96;;
64545;Laerm;50936;51.660;5.616;2023-05-19T06:31:04;61.36;46.65;72.33;;
64545;Laerm;50936;51.660;5.616;2023-05-19T06:33:42;60.29;48.03;69.34;;
64545;Laerm;50936;51.660;5.616;2023-05-19T06:36:09;62.94;49.23;76.43;;
64545;Laerm;50936;51.660;5.616;2023-05-19T06:38:38;62.35;47.30;77.24;;
64545;Laerm;50936;51.660;5.616;2023-05-19T06:41:05;60.88;48.26;72.79;;
64545;Laerm;50936;51.660;5.616;2023-05-19T06:43:32;62.30;48.51;79.14;;
64545;Laerm;50936;51.660;5.616;2023-05-19T06:46:03;62.12;49.23;71.05;;
64545;Laerm;50936;51.660;5.616;2023-05-19T06:48:32;61.93;50.58;72.41;;
64545;Laerm;50936;51.660;5.616;2023-05-19T06:50:59;67.17;55.24;83.17;;
64545;Laerm;50936;51.660;5.616;2023-05-19T06:53:26;60.68;51.26;70.11;;
64545;Laerm;50936;51.660;5.616;2023-05-19T06:55:54;63.98;52.85;78.94;;
64545;Laerm;50936;51.660;5.616;2023-05-19T06:58:30;63.62;51.57;77.08;;
64545;Laerm;50936;51.660;5.616;2023-05-19T07:00:58;62.48;49.25;72.06;;
64545;Laerm;50936;51.660;5.616;2023-05-19T07:03:30;62.90;44.83;81.78;;
64545;Laerm;50936;51.660;5.616;2023-05-19T07:05:58;63.06;48.71;80.31;;
64545;Laerm;50936;51.660;5.616;2023-05-19T07:08:25;62.42;50.39;70.37;;
64545;Laerm;50936;51.660;5.616;2023-05-19T07:10:53;62.31;50.69;74.58;;
64545;Laerm;50936;51.660;5.616;2023-05-19T07:13:23;63.08;49.56;72.51;;
64545;Laerm;50936;51.660;5.616;2023-05-19T07:15:54;62.99;48.71;75.47;;
64545;Laerm;50936;51.660;5.616;2023-05-19T07:18:26;65.59;53.46;82.72;;
64545;Laerm;50936;51.660;5.616;2023-05-19T07:20:57;64.30;51.03;78.84;;
64545;Laerm;50936;51.660;5.616;2023-05-19T07:23:24;62.10;51.04;72.02;;
64545;Laerm;50936;51.660;5.616;2023-05-19T07:25:55;62.68;51.93;75.98;;
64545;Laerm;50936;51.660;5.616;2023-05-19T07:28:22;61.43;49.25;74.77;;
64545;Laerm;50936;51.660;5.616;2023-05-19T07:30:49;60.98;46.02;69.95;;
64545;Laerm;50936;51.660;5.616;2023-05-19T07:33:16;60.28;48.18;69.76;;
64545;Laerm;50936;51.660;5.616;2023-05-19T07:35:43;64.10;52.36;73.55;;
64545;Laerm;50936;51.660;5.616;2023-05-19T07:38:11;63.96;52.84;76.30;;
64545;Laerm;50936;51.660;5.616;2023-05-19T07:40:38;64.14;51.84;82.26;;
64545;Laerm;50936;51.660;5.616;2023-05-19T07:43:04;67.81;52.04;94.08;;
64545;Laerm;50936;51.660;5.616;2023-05-19T07:45:31;61.39;51.12;70.78;;
64545;Laerm;50936;51.660;5.616;2023-05-19T07:47:58;62.97;50.77;74.60;;
64545;Laerm;50936;51.660;5.616;2023-05-19T07:50:25;62.95;49.45;71.56;;
64545;Laerm;50936;51.660;5.616;2023-05-19T07:52:52;63.34;51.18;77.29;;
64545;Laerm;50936;51.660;5.616;2023-05-19T07:55:19;64.20;50.13;76.99;;
64545;Laerm;50936;51.660;5.616;2023-05-19T07:57:49;63.48;49.74;79.31;;
64545;Laerm;50936;51.660;5.616;2023-05-19T08:00:17;62.87;51.28;72.10;;
64545;Laerm;50936;51.660;5.616;2023-05-19T08:02:44;64.24;52.91;75.54;;
64545;Laerm;50936;51.660;5.616;2023-05-19T08:05:11;63.84;53.86;71.52;;
64545;Laerm;50936;51.660;5.616;2023-05-19T08:07:38;63.82;55.22;79.36;;
64545;Laerm;50936;51.660;5.616;2023-05-19T08:10:05;62.00;51.57;72.12;;
64545;Laerm;50936;51.660;5.616;2023-05-19T08:12:32;63.96;53.38;80.43;;
64545;Laerm;50936;51.660;5.616;2023-05-19T08:14:59;64.79;53.65;86.82;;
64545;Laerm;50936;51.660;5.616;2023-05-19T08:17:27;62.44;51.43;71.19;;
64545;Laerm;50936;51.660;5.616;2023-05-19T08:19:54;62.61;50.74;71.85;;
64545;Laerm;50936;51.660;5.616;2023-05-19T08:22:21;65.35;54.49;77.17;;
64545;Laerm;50936;51.660;5.616;2023-05-19T08:24:48;64.32;54.70;86.20;;
64545;Laerm;50936;51.660;5.616;2023-05-19T08:27:17;64.07;52.45;78.76;;
64545;Laerm;50936;51.660;5.616;2023-05-19T08:29:44;64.19;54.63;86.36;;
64545;Laerm;50936;51.660;5.616;2023-05-19T08:32:10;61.49;52.50;69.52;;
64545;Laerm;50936;51.660;5.616;2023-05-19T08:34:39;62.65;53.27;76.75;;
64545;Laerm;50936;51.660;5.616;2023-05-19T08:37:06;62.35;52.13;70.27;;
64545;Laerm;50936;51.660;5.616;2023-05-19T08:39:33;63.19;50.66;78.31;;
64545;Laerm;50936;51.660;5.616;2023-05-19T08:42:00;64.17;49.70;86.31;;
64545;Laerm;50936;51.660;5.616;2023-05-19T08:44:28;63.84;51.29;80.96;;
64545;Laerm;50936;51.660;5.616;2023-05-19T08:47:02;62.83;52.83;77.60;;
64545;Laerm;50936;51.660;5.616;2023-05-19T08:49:34;62.45;53.39;77.88;;
64545;Laerm;50936;51.660;5.616;2023-05-19T08:52:40;63.78;53.98;77.76;;
64545;Laerm;50936;51.660;5.616;2023-05-19T08:55:51;63.06;51.57;76.81;;
64545;Laerm;50936;51.660;5.616;2023-05-19T08:58:21;63.23;54.17;73.66;;
64545;Laerm;50936;51.660;5.616;2023-05-19T09:00:49;63.83;55.00;75.95;;
64545;Laerm;50936;51.660;5.616;2023-05-19T09:03:17;65.38;54.29;83.40;;
64545;Laerm;50936;51.660;5.616;2023-05-19T09:05:48;64.62;54.88;81.43;;
64545;Laerm;50936;51.660;5.616;2023-05-19T09:08:15;63.63;51.40;75.08;;
64545;Laerm;50936;51.660;5.616;2023-05-19T09:10:42;62.67;47.48;71.03;;
64545;Laerm;50936;51.660;5.616;2023-05-19T09:13:09;61.81;51.57;71.86;;
64545;Laerm;50936;51.660;5.616;2023-05-19T09:15:39;62.95;51.70;76.85;;
64545;Laerm;50936;51.660;5.616;2023-05-19T09:18:09;62.89;51.14;72.69;;
64545;Laerm;50936;51.660;5.616;2023-05-19T09:20:39;62.36;52.49;80.13;;
64545;Laerm;50936;51.660;5.616;2023-05-19T09:23:15;64.07;53.39;73.34;;
64545;Laerm;50936;51.660;5.616;2023-05-19T09:25:50;62.72;49.80;77.13;;
64545;Laerm;50936;51.660;5.616;2023-05-19T09:28:28;65.14;52.97;86.20;;
64545;Laerm;50936;51.660;5.616;2023-05-19T09:33:27;63.08;52.67;77.90;;
64545;Laerm;50936;51.660;5.616;2023-05-19T09:35:55;62.83;53.25;75.56;;
64545;Laerm;50936;51.660;5.616;2023-05-19T09:38:24;61.58;51.17;71.20;;
64545;Laerm;50936;51.660;5.616;2023-05-19T09:40:56;64.98;54.47;78.57;;
64545;Laerm;50936;51.660;5.616;2023-05-19T09:43:30;62.66;53.64;76.87;;
64545;Laerm;50936;51.660;5.616;2023-05-19T09:46:05;63.85;54.19;83.18;;
64545;Laerm;50936;51.660;5.616;2023-05-19T09:48:34;63.34;52.05;81.12;;
64545;Laerm;50936;51.660;5.616;2023-05-19T09:51:04;65.11;53.99;77.80;;
64545;Laerm;50936;51.660;5.616;2023-05-19T09:53:33;62.34;54.23;73.83;;
64545;Laerm;50936;51.660;5.616;2023-05-19T09:56:01;64.19;53.36;76.46;;
64545;Laerm;50936;51.660;5.616;2023-05-19T09:58:33;63.67;52.50;73.47;;
64545;Laerm;50936;51.660;5.616;2023-05-19T10:01:03;62.87;52.00;79.11;;
64545;Laerm;50936;51.660;5.616;2023-05-19T10:03:30;64.10;52.80;83.17;;
64545;Laerm;50936;51.660;5.616;2023-05-19T10:06:03;61.82;51.19;72.11;;
64545;Laerm;50936;51.660;5.616;2023-05-19T10:08:33;62.19;52.61;78.08;;
64545;Laerm;50936;51.660;5.616;2023-05-19T10:11:01;62.39;51.98;70.63;;
64545;Laerm;50936;51.660;5.616;2023-05-19T10:13:29;62.44;52.53;72.64;;
64545;Laerm;50936;51.660;5.616;2023-05-19T10:15:58;64.39;53.00;85.55;;
64545;Laerm;50936;51.660;5.616;2023-05-19T10:18:26;62.99;51.37;72.65;;
64545;Laerm;50936;51.660;5.616;2023-05-19T10:20:56;63.60;54.33;76.49;;
64545;Laerm;50936;51.660;5.616;2023-05-19T10:23:24;64.10;53.98;76.58;;
64545;Laerm;50936;51.660;5.616;2023-05-19T10:25:56;68.94;52.92;93.51;;
64545;Laerm;50936;51.660;5.616;2023-05-19T10:28:40;64.65;54.79;83.57;;
64545;Laerm;50936;51.660;5.616;2023-05-19T10:31:15;66.66;55.11;82.18;;
64545;Laerm;50936;51.660;5.616;2023-05-19T10:40:17;63.06;55.29;75.45;;
64545;Laerm;50936;51.660;5.616;2023-05-19T10:45:47;63.29;53.93;73.55;;
64545;Laerm;50936;51.660;5.616;2023-05-19T10:48:15;63.56;54.53;72.96;;
64545;Laerm;50936;51.660;5.616;2023-05-19T10:50:44;64.28;54.75;82.74;;
64545;Laerm;50936;51.660;5.616;2023-05-19T10:53:16;62.96;55.03;74.85;;
64545;Laerm;50936;51.660;5.616;2023-05-19T10:55:53;62.72;52.22;76.77;;
64545;Laerm;50936;51.660;5.616;2023-05-19T11:01:15;73.07;50.98;90.81;;
64545;Laerm;50936;51.660;5.616;2023-05-19T11:03:54;67.86;50.13;86.47;;
64545;Laerm;50936;51.660;5.616;2023-05-19T11:06:31;62.06;52.24;72.86;;
64545;Laerm;50936;51.660;5.616;2023-05-19T11:09:10;62.11;52.80;74.23;;
64545;Laerm;50936;51.660;5.616;2023-05-19T11:11:48;64.34;53.48;78.93;;
64545;Laerm;50936;51.660;5.616;2023-05-19T11:14:25;63.35;52.39;73.35;;
64545;Laerm;50936;51.660;5.616;2023-05-19T11:16:57;64.26;54.71;75.67;;
64545;Laerm;50936;51.660;5.616;2023-05-19T11:19:32;63.84;54.86;74.34;;
64545;Laerm;50936;51.660;5.616;2023-05-19T11:22:11;63.43;51.09;81.98;;
64545;Laerm;50936;51.660;5.616;2023-05-19T11:24:45;67.09;54.99;82.06;;
64545;Laerm;50936;51.660;5.616;2023-05-19T11:27:30;63.48;53.21;77.79;;
64545;Laerm;50936;51.660;5.616;2023-05-19T11:32:37;66.00;57.21;79.86;;
64545;Laerm;50936;51.660;5.616;2023-05-19T11:35:06;65.70;54.09;79.45;;
64545;Laerm;50936;51.660;5.616;2023-05-19T11:37:34;65.81;52.66;74.51;;
64545;Laerm;50936;51.660;5.616;2023-05-19T11:40:03;64.56;54.82;75.02;;
64545;Laerm;50936;51.660;5.616;2023-05-19T11:42:35;64.66;54.25;85.24;;
64545;Laerm;50936;51.660;5.616;2023-05-19T11:45:04;63.91;53.87;79.69;;
64545;Laerm;50936;51.660;5.616;2023-05-19T11:47:31;63.04;55.38;75.17;;
64545;Laerm;50936;51.660;5.616;2023-05-19T11:50:18;66.52;53.11;83.58;;
64545;Laerm;50936;51.660;5.616;2023-05-19T11:52:46;64.94;55.79;80.20;;
64545;Laerm;50936;51.660;5.616;2023-05-19T11:55:17;65.45;54.04;86.92;;
64545;Laerm;50936;51.660;5.616;2023-05-19T12:00:34;61.75;54.67;73.15;;
64545;Laerm;50936;51.660;5.616;2023-05-19T12:03:06;63.07;53.70;76.04;;
64545;Laerm;50936;51.660;5.616;2023-05-19T12:05:43;65.32;52.68;76.89;;
64545;Laerm;50936;51.660;5.616;2023-05-19T12:08:16;62.36;55.81;71.99;;
64545;Laerm;50936;51.660;5.616;2023-05-19T12:10:47;63.67;53.88;80.34;;
64545;Laerm;50936;51.660;5.616;2023-05-19T12:13:18;62.94;54.48;75.26;;
64545;Laerm;50936;51.660;5.616;2023-05-19T12:15:45;62.36;55.02;74.18;;
64545;Laerm;50936;51.660;5.616;2023-05-19T12:18:12;60.89;54.30;72.05;;
64545;Laerm;50936;51.660;5.616;2023-05-19T12:20:39;63.36;52.19;74.28;;
64545;Laerm;50936;51.660;5.616;2023-05-19T12:23:06;62.83;54.38;73.28;;
64545;Laerm;50936;51.660;5.616;2023-05-19T12:25:34;63.43;54.46;79.97;;
64545;Laerm;50936;51.660;5.616;2023-05-19T12:28:02;63.29;56.63;74.41;;
64545;Laerm;50936;51.660;5.616;2023-05-19T12:30:30;64.79;53.90;78.67;;
64545;Laerm;50936;51.660;5.616;2023-05-19T12:33:00;66.29;54.03;85.40;;
64545;Laerm;50936;51.660;5.616;2023-05-19T12:35:30;64.73;52.70;83.22;;
64545;Laerm;50936;51.660;5.616;2023-05-19T12:38:04;67.53;53.55;92.08;;
64545;Laerm;50936;51.660;5.616;2023-05-19T12:40:35;62.99;56.20;71.14;;
64545;Laerm;50936;51.660;5.616;2023-05-19T12:43:07;65.76;57.72;82.42;;
64545;Laerm;50936;51.660;5.616;2023-05-19T12:45:44;62.47;55.68;79.86;;
64545;Laerm;50936;51.660;5.616;2023-05-19T12:48:11;64.84;57.06;74.45;;
64545;Laerm;50936;51.660;5.616;2023-05-19T12:50:38;67.83;55.93;82.06;;
64545;Laerm;50936;51.660;5.616;2023-05-19T12:53:10;63.61;52.36;71.84;;
64545;Laerm;50936;51.660;5.616;2023-05-19T12:55:43;68.31;53.88;90.38;;
64545;Laerm;50936;51.660;5.616;2023-05-19T12:58:11;65.70;55.50;74.99;;
64545;Laerm;50936;51.660;5.616;2023-05-19T13:00:43;63.31;55.66;83.14;;
64545;Laerm;50936;51.660;5.616;2023-05-19T13:03:18;64.89;57.17;87.58;;
64545;Laerm;50936;51.660;5.616;2023-05-19T13:05:49;64.76;55.55;76.84;;
64545;Laerm;50936;51.660;5.616;2023-05-19T13:08:19;64.34;56.45;87.29;;
64545;Laerm;50936;51.660;5.616;2023-05-19T13:10:47;63.88;54.99;76.81;;
64545;Laerm;50936;51.660;5.616;2023-05-19T13:13:17;62.81;52.75;76.28;;
64545;Laerm;50936;51.660;5.616;2023-05-19T13:15:45;65.61;53.59;83.36;;
64545;Laerm;50936;51.660;5.616;2023-05-19T13:18:16;65.45;56.44;77.28;;
64545;Laerm;50936;51.660;5.616;2023-05-19T13:20:44;65.11;58.24;80.53;;
64545;Laerm;50936;51.660;5.616;2023-05-19T13:23:14;62.81;53.87;72.02;;
64545;Laerm;50936;51.660;5.616;2023-05-19T13:25:42;62.13;50.77;85.89;;
64545;Laerm;50936;51.660;5.616;2023-05-19T13:28:09;63.36;53.28;71.96;;
64545;Laerm;50936;51.660;5.616;2023-05-19T13:30:38;63.11;54.74;72.57;;
64545;Laerm;50936;51.660;5.616;2023-05-19T13:33:06;62.82;52.47;76.97;;
64545;Laerm;50936;51.660;5.616;2023-05-19T13:35:34;62.97;52.85;75.97;;
64545;Laerm;50936;51.660;5.616;2023-05-19T13:38:05;63.56;54.89;74.55;;
64545;Laerm;50936;51.660;5.616;2023-05-19T13:40:33;65.11;52.76;81.74;;
64545;Laerm;50936;51.660;5.616;2023-05-19T13:43:04;64.68;53.97;77.34;;
64545;Laerm;50936;51.660;5.616;2023-05-19T13:45:32;66.84;56.03;89.58;;
64545;Laerm;50936;51.660;5.616;2023-05-19T13:47:59;63.60;53.96;72.95;;
64545;Laerm;50936;51.660;5.616;2023-05-19T13:50:26;66.01;55.08;81.73;;
64545;Laerm;50936;51.660;5.616;2023-05-19T13:52:53;65.78;54.60;82.73;;
64545;Laerm;50936;51.660;5.616;2023-05-19T13:55:20;63.95;53.24;77.53;;
64545;Laerm;50936;51.660;5.616;2023-05-19T13:57:48;64.44;54.60;82.07;;
64545;Laerm;50936;51.660;5.616;2023-05-19T14:00:17;63.00;53.97;71.27;;
64545;Laerm;50936;51.660;5.616;2023-05-19T14:02:45;65.11;52.73;89.42;;
64545;Laerm;50936;51.660;5.616;2023-05-19T14:05:12;63.11;56.54;72.31;;
64545;Laerm;50936;51.660;5.616;2023-05-19T14:07:39;68.67;53.55;87.10;;
64545;Laerm;50936;51.660;5.616;2023-05-19T14:10:06;63.13;56.50;73.28;;
64545;Laerm;50936;51.660;5.616;2023-05-19T14:12:34;70.67;57.14;94.25;;
64545;Laerm;50936;51.660;5.616;2023-05-19T14:15:21;66.54;52.58;85.61;;
64545;Laerm;50936;51.660;5.616;2023-05-19T14:17:49;67.05;54.56;87.45;;
64545;Laerm;50936;51.660;5.616;2023-05-19T14:20:20;62.81;54.42;79.57;;
64545;Laerm;50936;51.660;5.616;2023-05-19T14:22:47;62.10;53.65;70.30;;
64545;Laerm;50936;51.660;5.616;2023-05-19T14:25:14;69.39;53.76;92.55;;
64545;Laerm;50936;51.660;5.616;2023-05-19T14:27:41;67.87;55.91;83.68;;
64545;Laerm;50936;51.660;5.616;2023-05-19T14:30:08;61.93;50.46;73.68;;